Estación de Galvarino

Ultimos registro cada 15 minutos 37
Estación Fecha / Hora Temperatura Humedad Lluvia Velocidad Dirección Radiación Presion
37 Galvarino 07-05-2026 09:00 6,4 93,6 0 0 77 43,1 1002,3
36 Galvarino 07-05-2026 08:45 6 94,7 0 0 79 31,9 1002,4
35 Galvarino 07-05-2026 08:30 5,6 94,3 0 0 77 24,4 1001,9
34 Galvarino 07-05-2026 08:15 5,4 95,8 0 0 77 25,6 1001,6
33 Galvarino 07-05-2026 08:00 4,8 95,8 0 0 49 13,1 1001,5
32 Galvarino 07-05-2026 07:45 5,1 95,4 0 0 14 4,4 1001,5
31 Galvarino 07-05-2026 07:30 5,1 95,2 0 0 14 0,6 1001,4
30 Galvarino 07-05-2026 07:15 5,5 94,5 0 0 14 0,6 1001,4
29 Galvarino 07-05-2026 07:00 5,5 93,5 0 0 14 0,6 1001,3
28 Galvarino 07-05-2026 06:45 6 92,5 0 0 14 0,6 1001,4
27 Galvarino 07-05-2026 06:30 6,3 92 0 0 4 0,6 1001,5
26 Galvarino 07-05-2026 06:15 6,7 91,4 0 1 354 0,6 1001,6
25 Galvarino 07-05-2026 06:00 7 91,9 0 1 1 0,6 1001,4
24 Galvarino 07-05-2026 05:45 6,7 94,5 0 0 42 0,6 1000,9
23 Galvarino 07-05-2026 05:30 6,9 93,9 0 0 28 0,6 1000,8
22 Galvarino 07-05-2026 05:15 7,2 93,1 0,2 1 13 0,6 1000,6
21 Galvarino 07-05-2026 05:00 7,3 93,4 0 1 357 0,6 1000,6
20 Galvarino 07-05-2026 04:45 7,4 94,2 0 0,5 357 0,6 1000,6
19 Galvarino 07-05-2026 04:30 7,4 95,4 0 0,5 20 0,6 1000,5
18 Galvarino 07-05-2026 04:15 7,4 95,6 0 0,5 22 0,6 1000,2
17 Galvarino 07-05-2026 04:00 7,4 95,5 0 0,5 22 0,6 1000,1
16 Galvarino 07-05-2026 03:45 7,5 95,6 0,2 1 22 0,6 1000,2
15 Galvarino 07-05-2026 03:30 7,7 95,7 0 0,5 25 0,6 1000,1
14 Galvarino 07-05-2026 03:15 7,8 95,3 0 0 21 0,6 999,8
13 Galvarino 07-05-2026 03:00 7,8 94,5 0 0,5 14 0,6 999,8
12 Galvarino 07-05-2026 02:45 7,9 94 0 0 24 0,6 999,7
11 Galvarino 07-05-2026 02:30 7,7 94,2 0 0 24 0,6 999,8
10 Galvarino 07-05-2026 02:15 7,8 93,6 0 0 24 0,6 999,8
9 Galvarino 07-05-2026 02:00 7,9 92,3 0 0 24 0,6 999,5
8 Galvarino 07-05-2026 01:45 8 91,1 0 0 15 0,6 999,4
7 Galvarino 07-05-2026 01:30 8,3 89,8 0 0 22 0,6 999,2
6 Galvarino 07-05-2026 01:15 8,3 89,7 0 0 25 0,6 999,1
5 Galvarino 07-05-2026 01:00 8,3 89,7 0 0 27 0,6 999,1
4 Galvarino 07-05-2026 00:45 8,4 88,8 0 0 28 0,6 998,9
3 Galvarino 07-05-2026 00:30 8,6 86,7 0 0 20 0,6 998,7
2 Galvarino 07-05-2026 00:15 8,5 85,9 0 0 21 0,6 998,6
1 Galvarino 07-05-2026 00:00 7,9 87,5 0 0 45 0,6 998,5